sensor_id;sensor_type;location;lat;lon;timestamp;P1;durP1;ratioP1;P2;durP2;ratioP2
54897;SDS011;40800;52.704;6.398;2023-09-07T00:02:14;12.57;;;11.43;;
54897;SDS011;40800;52.704;6.398;2023-09-07T00:04:39;12.15;;;11.25;;
54897;SDS011;40800;52.704;6.398;2023-09-07T00:07:05;11.77;;;10.82;;
54897;SDS011;40800;52.704;6.398;2023-09-07T00:09:30;12.65;;;11.63;;
54897;SDS011;40800;52.704;6.398;2023-09-07T00:11:56;12.00;;;11.10;;
54897;SDS011;40800;52.704;6.398;2023-09-07T00:14:21;11.50;;;10.68;;
54897;SDS011;40800;52.704;6.398;2023-09-07T00:16:47;11.93;;;10.93;;
54897;SDS011;40800;52.704;6.398;2023-09-07T00:19:13;11.98;;;10.88;;
54897;SDS011;40800;52.704;6.398;2023-09-07T00:21:38;11.65;;;10.80;;
54897;SDS011;40800;52.704;6.398;2023-09-07T00:24:04;11.98;;;11.18;;
54897;SDS011;40800;52.704;6.398;2023-09-07T00:26:31;11.57;;;10.68;;
54897;SDS011;40800;52.704;6.398;2023-09-07T00:28:57;11.33;;;10.47;;
54897;SDS011;40800;52.704;6.398;2023-09-07T00:31:22;12.35;;;11.35;;
54897;SDS011;40800;52.704;6.398;2023-09-07T00:33:48;12.25;;;11.15;;
54897;SDS011;40800;52.704;6.398;2023-09-07T00:36:13;11.95;;;11.07;;
54897;SDS011;40800;52.704;6.398;2023-09-07T00:38:39;11.95;;;11.05;;
54897;SDS011;40800;52.704;6.398;2023-09-07T00:41:05;11.77;;;10.70;;
54897;SDS011;40800;52.704;6.398;2023-09-07T00:43:30;11.60;;;10.40;;
54897;SDS011;40800;52.704;6.398;2023-09-07T00:45:56;11.55;;;10.55;;
54897;SDS011;40800;52.704;6.398;2023-09-07T00:48:21;12.43;;;10.40;;
54897;SDS011;40800;52.704;6.398;2023-09-07T00:50:47;11.85;;;10.85;;
54897;SDS011;40800;52.704;6.398;2023-09-07T00:53:13;12.38;;;11.27;;
54897;SDS011;40800;52.704;6.398;2023-09-07T00:55:40;11.93;;;10.82;;
54897;SDS011;40800;52.704;6.398;2023-09-07T00:58:05;11.93;;;10.93;;
54897;SDS011;40800;52.704;6.398;2023-09-07T01:00:32;11.95;;;10.90;;
54897;SDS011;40800;52.704;6.398;2023-09-07T01:02:59;11.95;;;11.05;;
54897;SDS011;40800;52.704;6.398;2023-09-07T01:05:28;12.15;;;11.20;;
54897;SDS011;40800;52.704;6.398;2023-09-07T01:08:15;13.00;;;11.90;;
54897;SDS011;40800;52.704;6.398;2023-09-07T01:10:54;11.90;;;11.00;;
54897;SDS011;40800;52.704;6.398;2023-09-07T01:13:19;12.23;;;11.27;;
54897;SDS011;40800;52.704;6.398;2023-09-07T01:15:45;12.70;;;11.60;;
54897;SDS011;40800;52.704;6.398;2023-09-07T01:18:11;12.43;;;11.45;;
54897;SDS011;40800;52.704;6.398;2023-09-07T01:20:38;12.98;;;11.60;;
54897;SDS011;40800;52.704;6.398;2023-09-07T01:23:06;12.63;;;11.43;;
54897;SDS011;40800;52.704;6.398;2023-09-07T01:25:32;12.52;;;11.57;;
54897;SDS011;40800;52.704;6.398;2023-09-07T01:27:59;12.48;;;11.45;;
54897;SDS011;40800;52.704;6.398;2023-09-07T01:30:26;13.13;;;12.02;;
54897;SDS011;40800;52.704;6.398;2023-09-07T01:32:53;13.57;;;12.48;;
54897;SDS011;40800;52.704;6.398;2023-09-07T01:35:18;12.77;;;11.80;;
54897;SDS011;40800;52.704;6.398;2023-09-07T01:37:46;13.25;;;12.15;;
54897;SDS011;40800;52.704;6.398;2023-09-07T01:40:13;13.20;;;12.03;;
54897;SDS011;40800;52.704;6.398;2023-09-07T01:42:38;12.23;;;11.30;;
54897;SDS011;40800;52.704;6.398;2023-09-07T01:45:04;12.80;;;11.82;;
54897;SDS011;40800;52.704;6.398;2023-09-07T01:47:30;12.75;;;11.75;;
54897;SDS011;40800;52.704;6.398;2023-09-07T01:49:56;13.07;;;12.07;;
54897;SDS011;40800;52.704;6.398;2023-09-07T01:52:21;13.20;;;12.20;;
54897;SDS011;40800;52.704;6.398;2023-09-07T01:54:47;12.88;;;11.90;;
54897;SDS011;40800;52.704;6.398;2023-09-07T01:57:13;13.85;;;12.40;;
54897;SDS011;40800;52.704;6.398;2023-09-07T01:59:38;13.15;;;11.98;;
54897;SDS011;40800;52.704;6.398;2023-09-07T02:02:04;12.75;;;11.85;;
54897;SDS011;40800;52.704;6.398;2023-09-07T02:04:30;12.85;;;11.85;;
54897;SDS011;40800;52.704;6.398;2023-09-07T02:06:55;13.00;;;11.80;;
54897;SDS011;40800;52.704;6.398;2023-09-07T02:09:21;12.45;;;11.52;;
54897;SDS011;40800;52.704;6.398;2023-09-07T02:11:47;13.25;;;12.05;;
54897;SDS011;40800;52.704;6.398;2023-09-07T02:14:12;13.15;;;11.95;;
54897;SDS011;40800;52.704;6.398;2023-09-07T02:16:38;13.50;;;12.25;;
54897;SDS011;40800;52.704;6.398;2023-09-07T02:19:04;13.55;;;12.27;;
54897;SDS011;40800;52.704;6.398;2023-09-07T02:21:31;12.82;;;11.93;;
54897;SDS011;40800;52.704;6.398;2023-09-07T02:23:57;14.23;;;13.02;;
54897;SDS011;40800;52.704;6.398;2023-09-07T02:26:22;13.00;;;11.95;;
54897;SDS011;40800;52.704;6.398;2023-09-07T02:28:48;13.27;;;12.20;;
54897;SDS011;40800;52.704;6.398;2023-09-07T02:31:14;13.43;;;12.38;;
54897;SDS011;40800;52.704;6.398;2023-09-07T02:33:39;13.75;;;12.70;;
54897;SDS011;40800;52.704;6.398;2023-09-07T02:36:05;13.65;;;12.65;;
54897;SDS011;40800;52.704;6.398;2023-09-07T02:38:30;14.10;;;12.90;;
54897;SDS011;40800;52.704;6.398;2023-09-07T02:40:56;13.35;;;12.38;;
54897;SDS011;40800;52.704;6.398;2023-09-07T02:43:22;13.65;;;12.55;;
54897;SDS011;40800;52.704;6.398;2023-09-07T02:45:48;13.75;;;12.65;;
54897;SDS011;40800;52.704;6.398;2023-09-07T02:48:14;14.32;;;13.18;;
54897;SDS011;40800;52.704;6.398;2023-09-07T02:50:40;13.00;;;12.10;;
54897;SDS011;40800;52.704;6.398;2023-09-07T02:53:07;13.38;;;12.23;;
54897;SDS011;40800;52.704;6.398;2023-09-07T02:55:33;13.55;;;12.55;;
54897;SDS011;40800;52.704;6.398;2023-09-07T02:58:02;14.02;;;13.02;;
54897;SDS011;40800;52.704;6.398;2023-09-07T03:00:27;15.07;;;12.30;;
54897;SDS011;40800;52.704;6.398;2023-09-07T03:02:53;12.98;;;11.82;;
54897;SDS011;40800;52.704;6.398;2023-09-07T03:05:19;13.70;;;12.70;;
54897;SDS011;40800;52.704;6.398;2023-09-07T03:07:45;13.77;;;12.52;;
54897;SDS011;40800;52.704;6.398;2023-09-07T03:10:12;13.20;;;12.20;;
54897;SDS011;40800;52.704;6.398;2023-09-07T03:12:38;13.65;;;12.55;;
54897;SDS011;40800;52.704;6.398;2023-09-07T03:15:04;13.07;;;12.15;;
54897;SDS011;40800;52.704;6.398;2023-09-07T03:17:30;14.23;;;12.93;;
54897;SDS011;40800;52.704;6.398;2023-09-07T03:19:56;13.73;;;12.63;;
54897;SDS011;40800;52.704;6.398;2023-09-07T03:22:24;13.95;;;12.68;;
54897;SDS011;40800;52.704;6.398;2023-09-07T03:24:50;13.88;;;12.77;;
54897;SDS011;40800;52.704;6.398;2023-09-07T03:27:16;13.63;;;12.52;;
54897;SDS011;40800;52.704;6.398;2023-09-07T03:29:44;13.85;;;12.63;;
54897;SDS011;40800;52.704;6.398;2023-09-07T03:32:09;14.05;;;12.95;;
54897;SDS011;40800;52.704;6.398;2023-09-07T03:34:35;12.95;;;11.95;;
54897;SDS011;40800;52.704;6.398;2023-09-07T03:37:01;13.15;;;12.15;;
54897;SDS011;40800;52.704;6.398;2023-09-07T03:39:27;13.43;;;12.43;;
54897;SDS011;40800;52.704;6.398;2023-09-07T03:41:53;13.30;;;12.30;;
54897;SDS011;40800;52.704;6.398;2023-09-07T03:44:19;14.10;;;13.00;;
54897;SDS011;40800;52.704;6.398;2023-09-07T03:46:44;14.02;;;12.95;;
54897;SDS011;40800;52.704;6.398;2023-09-07T03:49:10;13.95;;;12.93;;
54897;SDS011;40800;52.704;6.398;2023-09-07T03:51:35;14.30;;;13.15;;
54897;SDS011;40800;52.704;6.398;2023-09-07T03:54:01;13.65;;;12.70;;
54897;SDS011;40800;52.704;6.398;2023-09-07T03:56:27;14.50;;;13.32;;
54897;SDS011;40800;52.704;6.398;2023-09-07T03:58:52;15.18;;;13.90;;
54897;SDS011;40800;52.704;6.398;2023-09-07T04:01:18;13.60;;;12.48;;
54897;SDS011;40800;52.704;6.398;2023-09-07T04:03:43;14.40;;;13.18;;
54897;SDS011;40800;52.704;6.398;2023-09-07T04:06:09;14.32;;;13.23;;
54897;SDS011;40800;52.704;6.398;2023-09-07T04:08:35;14.50;;;13.43;;
54897;SDS011;40800;52.704;6.398;2023-09-07T04:11:04;14.48;;;13.45;;
54897;SDS011;40800;52.704;6.398;2023-09-07T04:13:30;14.95;;;13.85;;
54897;SDS011;40800;52.704;6.398;2023-09-07T04:15:56;14.55;;;13.45;;
54897;SDS011;40800;52.704;6.398;2023-09-07T04:18:22;15.02;;;13.82;;
54897;SDS011;40800;52.704;6.398;2023-09-07T04:20:47;15.05;;;13.98;;
54897;SDS011;40800;52.704;6.398;2023-09-07T04:23:13;16.05;;;14.60;;
54897;SDS011;40800;52.704;6.398;2023-09-07T04:25:38;16.48;;;15.20;;
54897;SDS011;40800;52.704;6.398;2023-09-07T04:28:05;16.25;;;14.90;;
54897;SDS011;40800;52.704;6.398;2023-09-07T04:30:32;16.63;;;15.10;;
54897;SDS011;40800;52.704;6.398;2023-09-07T04:35:28;15.63;;;14.43;;
54897;SDS011;40800;52.704;6.398;2023-09-07T04:37:57;15.55;;;14.35;;
54897;SDS011;40800;52.704;6.398;2023-09-07T04:40:23;15.57;;;14.27;;
54897;SDS011;40800;52.704;6.398;2023-09-07T04:42:49;16.17;;;14.77;;
54897;SDS011;40800;52.704;6.398;2023-09-07T04:45:15;16.00;;;14.80;;
54897;SDS011;40800;52.704;6.398;2023-09-07T04:47:40;16.20;;;15.00;;
54897;SDS011;40800;52.704;6.398;2023-09-07T04:50:06;16.23;;;14.93;;
54897;SDS011;40800;52.704;6.398;2023-09-07T04:52:32;16.17;;;14.88;;
54897;SDS011;40800;52.704;6.398;2023-09-07T04:54:59;16.60;;;15.13;;
54897;SDS011;40800;52.704;6.398;2023-09-07T04:57:25;16.20;;;14.88;;
54897;SDS011;40800;52.704;6.398;2023-09-07T04:59:51;15.90;;;14.60;;
54897;SDS011;40800;52.704;6.398;2023-09-07T05:02:16;17.05;;;15.75;;
54897;SDS011;40800;52.704;6.398;2023-09-07T05:04:42;17.38;;;15.80;;
54897;SDS011;40800;52.704;6.398;2023-09-07T05:07:07;17.58;;;16.02;;
54897;SDS011;40800;52.704;6.398;2023-09-07T05:09:33;17.55;;;15.77;;
54897;SDS011;40800;52.704;6.398;2023-09-07T05:11:59;17.48;;;16.08;;
54897;SDS011;40800;52.704;6.398;2023-09-07T05:14:25;17.02;;;15.73;;
54897;SDS011;40800;52.704;6.398;2023-09-07T05:16:50;16.70;;;15.40;;
54897;SDS011;40800;52.704;6.398;2023-09-07T05:19:16;18.25;;;16.58;;
54897;SDS011;40800;52.704;6.398;2023-09-07T05:21:42;18.08;;;16.05;;
54897;SDS011;40800;52.704;6.398;2023-09-07T05:24:07;18.17;;;16.58;;
54897;SDS011;40800;52.704;6.398;2023-09-07T05:26:33;16.88;;;15.57;;
54897;SDS011;40800;52.704;6.398;2023-09-07T05:28:59;16.98;;;15.57;;
54897;SDS011;40800;52.704;6.398;2023-09-07T05:31:25;17.17;;;15.57;;
54897;SDS011;40800;52.704;6.398;2023-09-07T05:33:50;16.98;;;15.48;;
54897;SDS011;40800;52.704;6.398;2023-09-07T05:36:17;16.98;;;15.65;;
54897;SDS011;40800;52.704;6.398;2023-09-07T05:38:42;18.60;;;16.90;;
54897;SDS011;40800;52.704;6.398;2023-09-07T05:41:08;17.65;;;16.15;;
54897;SDS011;40800;52.704;6.398;2023-09-07T05:43:33;17.23;;;15.52;;
54897;SDS011;40800;52.704;6.398;2023-09-07T05:45:59;17.17;;;15.52;;
54897;SDS011;40800;52.704;6.398;2023-09-07T05:48:25;17.98;;;15.90;;
54897;SDS011;40800;52.704;6.398;2023-09-07T05:50:50;18.55;;;15.07;;
54897;SDS011;40800;52.704;6.398;2023-09-07T05:53:18;17.95;;;15.55;;
54897;SDS011;40800;52.704;6.398;2023-09-07T05:55:44;17.05;;;15.82;;
54897;SDS011;40800;52.704;6.398;2023-09-07T05:58:10;17.13;;;15.70;;
54897;SDS011;40800;52.704;6.398;2023-09-07T06:00:37;16.80;;;15.63;;
54897;SDS011;40800;52.704;6.398;2023-09-07T06:05:30;16.83;;;15.48;;
54897;SDS011;40800;52.704;6.398;2023-09-07T06:07:56;17.10;;;15.55;;
54897;SDS011;40800;52.704;6.398;2023-09-07T06:10:22;16.25;;;15.00;;
54897;SDS011;40800;52.704;6.398;2023-09-07T06:12:48;16.45;;;15.05;;
54897;SDS011;40800;52.704;6.398;2023-09-07T06:15:14;16.73;;;15.40;;
54897;SDS011;40800;52.704;6.398;2023-09-07T06:17:40;16.63;;;15.35;;
54897;SDS011;40800;52.704;6.398;2023-09-07T06:20:05;16.52;;;15.32;;
54897;SDS011;40800;52.704;6.398;2023-09-07T06:22:32;16.40;;;15.20;;
54897;SDS011;40800;52.704;6.398;2023-09-07T06:24:57;15.88;;;14.68;;
54897;SDS011;40800;52.704;6.398;2023-09-07T06:27:23;16.15;;;14.73;;
54897;SDS011;40800;52.704;6.398;2023-09-07T06:29:48;16.02;;;14.82;;
54897;SDS011;40800;52.704;6.398;2023-09-07T06:32:14;16.45;;;14.82;;
54897;SDS011;40800;52.704;6.398;2023-09-07T06:34:40;16.85;;;15.18;;
54897;SDS011;40800;52.704;6.398;2023-09-07T06:37:06;16.38;;;15.15;;
54897;SDS011;40800;52.704;6.398;2023-09-07T06:39:31;16.40;;;15.10;;
54897;SDS011;40800;52.704;6.398;2023-09-07T06:41:57;16.52;;;15.25;;
54897;SDS011;40800;52.704;6.398;2023-09-07T06:44:22;16.92;;;15.55;;
54897;SDS011;40800;52.704;6.398;2023-09-07T06:46:48;16.02;;;14.60;;
54897;SDS011;40800;52.704;6.398;2023-09-07T06:49:14;16.10;;;14.60;;
54897;SDS011;40800;52.704;6.398;2023-09-07T06:51:40;16.15;;;14.77;;
54897;SDS011;40800;52.704;6.398;2023-09-07T06:54:05;15.50;;;14.25;;
54897;SDS011;40800;52.704;6.398;2023-09-07T06:56:31;16.75;;;15.40;;
54897;SDS011;40800;52.704;6.398;2023-09-07T06:58:58;15.73;;;14.55;;
54897;SDS011;40800;52.704;6.398;2023-09-07T07:01:24;15.68;;;14.38;;
54897;SDS011;40800;52.704;6.398;2023-09-07T07:03:49;16.67;;;15.20;;
54897;SDS011;40800;52.704;6.398;2023-09-07T07:06:15;16.55;;;15.25;;
54897;SDS011;40800;52.704;6.398;2023-09-07T07:08:41;16.25;;;14.95;;
54897;SDS011;40800;52.704;6.398;2023-09-07T07:11:06;15.75;;;14.43;;
54897;SDS011;40800;52.704;6.398;2023-09-07T07:13:33;16.38;;;14.90;;
54897;SDS011;40800;52.704;6.398;2023-09-07T07:15:58;16.60;;;15.10;;
54897;SDS011;40800;52.704;6.398;2023-09-07T07:18:24;16.33;;;14.75;;
54897;SDS011;40800;52.704;6.398;2023-09-07T07:20:49;17.73;;;14.68;;
54897;SDS011;40800;52.704;6.398;2023-09-07T07:23:18;15.60;;;14.30;;
54897;SDS011;40800;52.704;6.398;2023-09-07T07:25:43;15.43;;;14.15;;
54897;SDS011;40800;52.704;6.398;2023-09-07T07:28:09;16.15;;;14.85;;
54897;SDS011;40800;52.704;6.398;2023-09-07T07:30:36;15.63;;;14.13;;
54897;SDS011;40800;52.704;6.398;2023-09-07T07:33:03;14.63;;;13.32;;
54897;SDS011;40800;52.704;6.398;2023-09-07T07:35:30;15.07;;;13.68;;
54897;SDS011;40800;52.704;6.398;2023-09-07T07:37:56;14.80;;;13.65;;
54897;SDS011;40800;52.704;6.398;2023-09-07T07:40:21;31.92;;;15.20;;
54897;SDS011;40800;52.704;6.398;2023-09-07T07:42:47;15.13;;;13.57;;
54897;SDS011;40800;52.704;6.398;2023-09-07T07:45:14;14.75;;;13.43;;
54897;SDS011;40800;52.704;6.398;2023-09-07T07:47:40;14.13;;;13.03;;
54897;SDS011;40800;52.704;6.398;2023-09-07T07:50:06;14.63;;;13.23;;
54897;SDS011;40800;52.704;6.398;2023-09-07T07:52:32;14.77;;;12.63;;
54897;SDS011;40800;52.704;6.398;2023-09-07T07:54:58;14.15;;;12.93;;
54897;SDS011;40800;52.704;6.398;2023-09-07T07:57:24;14.00;;;12.73;;
54897;SDS011;40800;52.704;6.398;2023-09-07T07:59:50;13.25;;;11.90;;
54897;SDS011;40800;52.704;6.398;2023-09-07T08:02:15;13.88;;;12.68;;
54897;SDS011;40800;52.704;6.398;2023-09-07T08:04:41;13.87;;;12.73;;
54897;SDS011;40800;52.704;6.398;2023-09-07T08:07:06;14.07;;;12.87;;
54897;SDS011;40800;52.704;6.398;2023-09-07T08:09:33;14.35;;;13.05;;
54897;SDS011;40800;52.704;6.398;2023-09-07T08:12:00;13.65;;;12.45;;
54897;SDS011;40800;52.704;6.398;2023-09-07T08:14:29;13.77;;;12.48;;
54897;SDS011;40800;52.704;6.398;2023-09-07T08:16:54;13.00;;;11.90;;
54897;SDS011;40800;52.704;6.398;2023-09-07T08:19:21;13.88;;;12.60;;
54897;SDS011;40800;52.704;6.398;2023-09-07T08:21:46;13.20;;;12.07;;
54897;SDS011;40800;52.704;6.398;2023-09-07T08:24:12;13.23;;;12.00;;
54897;SDS011;40800;52.704;6.398;2023-09-07T08:26:38;13.33;;;12.13;;
54897;SDS011;40800;52.704;6.398;2023-09-07T08:29:04;13.23;;;12.02;;
54897;SDS011;40800;52.704;6.398;2023-09-07T08:31:31;12.50;;;11.50;;
54897;SDS011;40800;52.704;6.398;2023-09-07T08:33:59;12.35;;;11.27;;
54897;SDS011;40800;52.704;6.398;2023-09-07T08:36:25;12.30;;;11.05;;
54897;SDS011;40800;52.704;6.398;2023-09-07T08:38:53;12.13;;;10.93;;
54897;SDS011;40800;52.704;6.398;2023-09-07T08:41:19;12.73;;;11.52;;
54897;SDS011;40800;52.704;6.398;2023-09-07T08:43:46;12.18;;;10.98;;
54897;SDS011;40800;52.704;6.398;2023-09-07T08:46:15;12.57;;;11.30;;
54897;SDS011;40800;52.704;6.398;2023-09-07T08:48:45;12.50;;;10.18;;
54897;SDS011;40800;52.704;6.398;2023-09-07T08:51:12;9.73;;;8.82;;
54897;SDS011;40800;52.704;6.398;2023-09-07T08:53:40;10.20;;;9.15;;
54897;SDS011;40800;52.704;6.398;2023-09-07T08:56:10;9.98;;;8.98;;
54897;SDS011;40800;52.704;6.398;2023-09-07T08:58:37;10.85;;;9.45;;
54897;SDS011;40800;52.704;6.398;2023-09-07T09:01:03;8.87;;;8.03;;
54897;SDS011;40800;52.704;6.398;2023-09-07T09:03:28;9.17;;;8.30;;
54897;SDS011;40800;52.704;6.398;2023-09-07T09:05:55;10.95;;;8.05;;
54897;SDS011;40800;52.704;6.398;2023-09-07T09:08:22;11.43;;;8.20;;
54897;SDS011;40800;52.704;6.398;2023-09-07T09:11:10;10.55;;;8.55;;
54897;SDS011;40800;52.704;6.398;2023-09-07T09:13:36;9.18;;;7.85;;
54897;SDS011;40800;52.704;6.398;2023-09-07T09:16:01;11.60;;;8.07;;
54897;SDS011;40800;52.704;6.398;2023-09-07T09:18:27;8.27;;;6.97;;
54897;SDS011;40800;52.704;6.398;2023-09-07T09:20:56;9.27;;;7.75;;
54897;SDS011;40800;52.704;6.398;2023-09-07T09:23:24;7.70;;;6.53;;
54897;SDS011;40800;52.704;6.398;2023-09-07T09:25:55;8.20;;;6.93;;
54897;SDS011;40800;52.704;6.398;2023-09-07T09:28:21;10.30;;;7.17;;
54897;SDS011;40800;52.704;6.398;2023-09-07T09:30:47;8.30;;;6.77;;
54897;SDS011;40800;52.704;6.398;2023-09-07T09:33:14;6.78;;;6.03;;
54897;SDS011;40800;52.704;6.398;2023-09-07T09:35:41;7.83;;;6.67;;
54897;SDS011;40800;52.704;6.398;2023-09-07T09:38:07;7.22;;;6.43;;
54897;SDS011;40800;52.704;6.398;2023-09-07T09:40:35;7.65;;;6.65;;
54897;SDS011;40800;52.704;6.398;2023-09-07T09:43:03;8.17;;;6.80;;
54897;SDS011;40800;52.704;6.398;2023-09-07T09:45:30;8.80;;;6.97;;
54897;SDS011;40800;52.704;6.398;2023-09-07T09:47:58;8.90;;;6.30;;
54897;SDS011;40800;52.704;6.398;2023-09-07T09:50:27;8.90;;;6.95;;
54897;SDS011;40800;52.704;6.398;2023-09-07T09:52:56;9.70;;;7.35;;
54897;SDS011;40800;52.704;6.398;2023-09-07T09:55:23;27.10;;;8.20;;
54897;SDS011;40800;52.704;6.398;2023-09-07T09:57:49;20.00;;;7.60;;
54897;SDS011;40800;52.704;6.398;2023-09-07T10:00:15;10.55;;;7.40;;
54897;SDS011;40800;52.704;6.398;2023-09-07T10:02:51;9.27;;;6.82;;
54897;SDS011;40800;52.704;6.398;2023-09-07T10:05:24;8.60;;;6.70;;
54897;SDS011;40800;52.704;6.398;2023-09-07T10:07:51;9.77;;;6.80;;
54897;SDS011;40800;52.704;6.398;2023-09-07T10:10:18;9.70;;;6.67;;
54897;SDS011;40800;52.704;6.398;2023-09-07T10:12:45;11.43;;;6.10;;
54897;SDS011;40800;52.704;6.398;2023-09-07T10:15:35;9.57;;;6.32;;
54897;SDS011;40800;52.704;6.398;2023-09-07T10:20:34;8.95;;;6.30;;
54897;SDS011;40800;52.704;6.398;2023-09-07T10:23:19;9.25;;;5.97;;
54897;SDS011;40800;52.704;6.398;2023-09-07T10:25:52;8.15;;;5.90;;
54897;SDS011;40800;52.704;6.398;2023-09-07T10:28:25;8.70;;;6.15;;
54897;SDS011;40800;52.704;6.398;2023-09-07T10:30:57;7.47;;;5.78;;
54897;SDS011;40800;52.704;6.398;2023-09-07T10:33:23;10.45;;;6.13;;
54897;SDS011;40800;52.704;6.398;2023-09-07T10:35:49;11.60;;;6.20;;
54897;SDS011;40800;52.704;6.398;2023-09-07T10:38:15;9.50;;;5.93;;
54897;SDS011;40800;52.704;6.398;2023-09-07T10:40:41;7.93;;;5.70;;
54897;SDS011;40800;52.704;6.398;2023-09-07T10:43:10;7.30;;;6.18;;
54897;SDS011;40800;52.704;6.398;2023-09-07T10:45:35;7.90;;;6.00;;
54897;SDS011;40800;52.704;6.398;2023-09-07T10:48:01;7.97;;;5.57;;
54897;SDS011;40800;52.704;6.398;2023-09-07T10:50:29;6.47;;;5.78;;
54897;SDS011;40800;52.704;6.398;2023-09-07T10:52:55;10.35;;;5.55;;
54897;SDS011;40800;52.704;6.398;2023-09-07T10:55:20;6.90;;;5.40;;
54897;SDS011;40800;52.704;6.398;2023-09-07T10:57:47;8.87;;;5.73;;
54897;SDS011;40800;52.704;6.398;2023-09-07T11:00:13;7.15;;;5.57;;
54897;SDS011;40800;52.704;6.398;2023-09-07T11:05:06;8.82;;;5.82;;
54897;SDS011;40800;52.704;6.398;2023-09-07T11:09:58;7.05;;;5.47;;
54897;SDS011;40800;52.704;6.398;2023-09-07T11:12:24;6.07;;;5.47;;
54897;SDS011;40800;52.704;6.398;2023-09-07T11:14:50;6.33;;;5.10;;
54897;SDS011;40800;52.704;6.398;2023-09-07T11:17:17;8.25;;;5.40;;
54897;SDS011;40800;52.704;6.398;2023-09-07T11:19:43;8.13;;;5.20;;
54897;SDS011;40800;52.704;6.398;2023-09-07T11:22:11;8.37;;;5.23;;
54897;SDS011;40800;52.704;6.398;2023-09-07T11:24:37;6.25;;;4.85;;
54897;SDS011;40800;52.704;6.398;2023-09-07T11:27:03;8.90;;;5.37;;
54897;SDS011;40800;52.704;6.398;2023-09-07T11:29:32;6.20;;;4.77;;
54897;SDS011;40800;52.704;6.398;2023-09-07T11:32:07;7.15;;;4.78;;
54897;SDS011;40800;52.704;6.398;2023-09-07T11:34:33;7.28;;;5.00;;
54897;SDS011;40800;52.704;6.398;2023-09-07T11:37:01;6.78;;;4.85;;
54897;SDS011;40800;52.704;6.398;2023-09-07T11:39:28;8.55;;;5.40;;
54897;SDS011;40800;52.704;6.398;2023-09-07T11:41:54;6.40;;;5.07;;
54897;SDS011;40800;52.704;6.398;2023-09-07T11:44:19;4.97;;;4.40;;
54897;SDS011;40800;52.704;6.398;2023-09-07T11:46:45;6.60;;;5.20;;
54897;SDS011;40800;52.704;6.398;2023-09-07T11:49:11;6.73;;;4.67;;
54897;SDS011;40800;52.704;6.398;2023-09-07T11:51:36;7.33;;;4.47;;
54897;SDS011;40800;52.704;6.398;2023-09-07T11:54:02;5.50;;;4.32;;
54897;SDS011;40800;52.704;6.398;2023-09-07T11:56:29;7.25;;;4.78;;
54897;SDS011;40800;52.704;6.398;2023-09-07T11:58:54;6.13;;;4.90;;
54897;SDS011;40800;52.704;6.398;2023-09-07T12:01:20;7.60;;;4.80;;
54897;SDS011;40800;52.704;6.398;2023-09-07T12:03:46;7.03;;;4.70;;
54897;SDS011;40800;52.704;6.398;2023-09-07T12:06:12;10.55;;;4.93;;
54897;SDS011;40800;52.704;6.398;2023-09-07T12:08:41;18.02;;;5.47;;
54897;SDS011;40800;52.704;6.398;2023-09-07T12:11:08;7.95;;;4.88;;
54897;SDS011;40800;52.704;6.398;2023-09-07T12:13:33;8.23;;;4.93;;
54897;SDS011;40800;52.704;6.398;2023-09-07T12:15:59;7.67;;;4.67;;
54897;SDS011;40800;52.704;6.398;2023-09-07T12:18:27;7.10;;;4.70;;
54897;SDS011;40800;52.704;6.398;2023-09-07T12:20:52;6.47;;;5.10;;
54897;SDS011;40800;52.704;6.398;2023-09-07T12:23:19;8.73;;;4.72;;
54897;SDS011;40800;52.704;6.398;2023-09-07T12:25:44;5.37;;;4.87;;
54897;SDS011;40800;52.704;6.398;2023-09-07T12:28:15;7.70;;;4.18;;
54897;SDS011;40800;52.704;6.398;2023-09-07T12:30:41;7.60;;;4.77;;
54897;SDS011;40800;52.704;6.398;2023-09-07T12:33:09;7.72;;;4.88;;
54897;SDS011;40800;52.704;6.398;2023-09-07T12:35:35;8.53;;;4.73;;
54897;SDS011;40800;52.704;6.398;2023-09-07T12:38:00;6.83;;;4.00;;
54897;SDS011;40800;52.704;6.398;2023-09-07T12:40:26;6.67;;;4.30;;
54897;SDS011;40800;52.704;6.398;2023-09-07T12:42:51;7.37;;;4.50;;
54897;SDS011;40800;52.704;6.398;2023-09-07T12:45:17;7.50;;;4.60;;
54897;SDS011;40800;52.704;6.398;2023-09-07T12:47:43;7.13;;;5.10;;
54897;SDS011;40800;52.704;6.398;2023-09-07T12:50:08;6.97;;;4.40;;
54897;SDS011;40800;52.704;6.398;2023-09-07T12:52:34;5.37;;;4.37;;
54897;SDS011;40800;52.704;6.398;2023-09-07T12:55:02;6.68;;;4.40;;
54897;SDS011;40800;52.704;6.398;2023-09-07T12:57:29;9.18;;;4.70;;
54897;SDS011;40800;52.704;6.398;2023-09-07T12:59:54;7.90;;;4.87;;
54897;SDS011;40800;52.704;6.398;2023-09-07T13:02:20;6.10;;;4.70;;
54897;SDS011;40800;52.704;6.398;2023-09-07T13:04:45;5.97;;;4.53;;
54897;SDS011;40800;52.704;6.398;2023-09-07T13:07:11;5.55;;;4.50;;
54897;SDS011;40800;52.704;6.398;2023-09-07T13:09:37;10.77;;;4.93;;
54897;SDS011;40800;52.704;6.398;2023-09-07T13:12:02;7.47;;;4.90;;
54897;SDS011;40800;52.704;6.398;2023-09-07T13:14:28;6.28;;;4.60;;
54897;SDS011;40800;52.704;6.398;2023-09-07T13:16:54;5.77;;;4.40;;
54897;SDS011;40800;52.704;6.398;2023-09-07T13:19:19;7.20;;;4.40;;
54897;SDS011;40800;52.704;6.398;2023-09-07T13:21:45;5.27;;;4.57;;
54897;SDS011;40800;52.704;6.398;2023-09-07T13:24:11;4.73;;;4.23;;
54897;SDS011;40800;52.704;6.398;2023-09-07T13:26:36;5.17;;;4.20;;
54897;SDS011;40800;52.704;6.398;2023-09-07T13:29:04;10.02;;;4.97;;
54897;SDS011;40800;52.704;6.398;2023-09-07T13:31:30;5.23;;;4.70;;
54897;SDS011;40800;52.704;6.398;2023-09-07T13:33:56;6.60;;;4.17;;
54897;SDS011;40800;52.704;6.398;2023-09-07T13:36:21;5.87;;;4.30;;
54897;SDS011;40800;52.704;6.398;2023-09-07T13:38:47;6.73;;;4.33;;
54897;SDS011;40800;52.704;6.398;2023-09-07T13:41:12;5.60;;;4.30;;
54897;SDS011;40800;52.704;6.398;2023-09-07T13:43:38;6.43;;;4.60;;
54897;SDS011;40800;52.704;6.398;2023-09-07T13:46:03;7.47;;;4.10;;
54897;SDS011;40800;52.704;6.398;2023-09-07T13:48:29;5.90;;;4.23;;
54897;SDS011;40800;52.704;6.398;2023-09-07T13:50:57;6.30;;;4.40;;
54897;SDS011;40800;52.704;6.398;2023-09-07T13:53:23;5.53;;;4.73;;
54897;SDS011;40800;52.704;6.398;2023-09-07T13:55:48;5.33;;;4.70;;
54897;SDS011;40800;52.704;6.398;2023-09-07T13:58:15;6.03;;;4.18;;
54897;SDS011;40800;52.704;6.398;2023-09-07T14:00:40;4.90;;;4.30;;
54897;SDS011;40800;52.704;6.398;2023-09-07T14:03:06;7.07;;;4.50;;
54897;SDS011;40800;52.704;6.398;2023-09-07T14:05:32;6.10;;;4.00;;
54897;SDS011;40800;52.704;6.398;2023-09-07T14:07:57;6.60;;;4.23;;
54897;SDS011;40800;52.704;6.398;2023-09-07T14:10:23;5.77;;;4.40;;
54897;SDS011;40800;52.704;6.398;2023-09-07T14:12:48;5.30;;;4.10;;
54897;SDS011;40800;52.704;6.398;2023-09-07T14:15:14;7.97;;;4.27;;
54897;SDS011;40800;52.704;6.398;2023-09-07T14:17:40;6.55;;;4.55;;
54897;SDS011;40800;52.704;6.398;2023-09-07T14:20:05;7.60;;;4.27;;
54897;SDS011;40800;52.704;6.398;2023-09-07T14:22:31;14.82;;;5.15;;
54897;SDS011;40800;52.704;6.398;2023-09-07T14:24:57;6.30;;;4.63;;
54897;SDS011;40800;52.704;6.398;2023-09-07T14:27:22;8.27;;;4.67;;
54897;SDS011;40800;52.704;6.398;2023-09-07T14:29:49;5.10;;;4.18;;
54897;SDS011;40800;52.704;6.398;2023-09-07T14:32:14;6.53;;;4.70;;
54897;SDS011;40800;52.704;6.398;2023-09-07T14:34:40;9.33;;;4.47;;
54897;SDS011;40800;52.704;6.398;2023-09-07T14:37:05;10.23;;;4.87;;
54897;SDS011;40800;52.704;6.398;2023-09-07T14:39:31;6.77;;;4.60;;